PDT,Max TemperatureF,Mean TemperatureF,Min TemperatureF,Max Dew PointF,MeanDew PointF,Min DewpointF,Max Humidity, Mean Humidity, Min Humidity, Max Sea Level PressureIn, Mean Sea Level PressureIn, Min Sea Level PressureIn, Max VisibilityMiles, Mean VisibilityMiles, Min VisibilityMiles, Max Wind SpeedMPH, Mean Wind SpeedMPH, Max Gust SpeedMPH,PrecipitationIn, CloudCover, Events, WindDirDegrees
2013-9-1,83,66,49,59,54,48,100,69,37,30.16,29.97,29.85,10,10,10,23,7,32,0.12,4,Rain-Thunderstorm,193
2013-9-2,79,67,54,58,54,49,100,69,38,30.22,29.95,29.88,10,10,9,14,7,18,0.13,2,Rain,197
2013-9-3,76,65,54,56,54,52,93,68,43,30.37,30.05,29.91,10,9,2,23,6,30,0.40,5,Rain-Thunderstorm,187
2013-9-4,82,66,49,57,54,49,100,70,39,30.38,30.12,29.96,10,10,4,23,6,26,0.38,3,Rain-Thunderstorm,14
2013-9-5,82,69,55,56,52,46,100,65,30,30.04,29.96,29.89,10,10,10,23,10,35,0.00,1,,181
2013-9-6,83,70,56,55,49,45,72,50,28,30.21,29.97,29.88,10,10,2,26,13,40,0.01,2,Rain-Thunderstorm,177
2013-9-7,71,62,53,59,54,50,97,78,59,30.26,30.00,29.93,10,10,2,25,9,33,0.10,5,Rain,172
2013-9-8,79,65,50,53,49,41,96,63,29,30.11,29.92,29.81,10,10,2,18,7,24,0.11,1,Rain,171
2013-9-9,79,62,45,49,44,34,100,61,21,29.93,29.83,29.76,10,10,10,14,7,17,0.00,0,,36
2013-9-10,73,59,44,52,43,38,86,58,29,29.95,29.87,29.81,10,10,10,22,9,28,T,4,Rain,101
2013-9-11,62,57,52,55,53,50,93,83,72,30.17,30.00,29.87,10,10,3,9,3,25,0.32,8,Rain,180
2013-9-12,65,59,52,54,53,52,93,80,67,30.20,30.05,29.92,10,10,8,13,5,15,0.07,7,Rain,11
2013-9-13,69,59,49,54,52,49,100,78,56,30.02,29.87,29.79,10,10,8,17,5,20,0.05,6,Rain-Thunderstorm,165
2013-9-14,69,57,44,54,49,44,100,74,48,29.90,29.85,29.82,10,10,10,25,5,29,0.03,3,Rain,168
2013-9-15,79,62,44,51,47,43,100,65,29,29.95,29.88,29.82,10,10,10,16,7,21,0.00,0,,181
2013-9-16,81,67,53,48,43,37,77,50,23,29.91,29.82,29.75,10,10,10,25,13,33,0.00,1,,186
2013-9-17,81,67,53,45,31,12,66,38,9,29.76,29.61,29.50,10,10,10,40,17,47,0.00,1,,187
2013-9-18,70,53,36,32,25,15,64,39,14,29.99,29.82,29.66,10,10,10,14,6,23,0.00,0,,311
2013-9-19,73,52,30,33,28,21,85,50,15,30.12,30.01,29.94,10,10,10,12,6,14,0.00,0,,141
2013-9-20,78,56,33,33,30,25,82,49,16,30.12,29.89,29.71,10,10,10,26,10,35,0.00,0,,175
2013-9-21,77,61,45,33,24,12,53,32,11,29.74,29.58,29.42,10,10,10,35,20,46,0.00,0,,183
2013-9-22,63,52,40,35,32,23,70,47,24,29.93,29.67,29.42,10,10,10,22,10,30,0.00,3,,297
2013-9-23,72,52,31,33,27,21,85,51,16,30.07,29.99,29.93,10,10,10,14,7,17,0.00,0,,192
2013-9-24,75,58,40,26,23,17,55,34,12,29.97,29.75,29.48,10,10,10,33,18,43,0.00,0,,185
2013-9-25,56,47,38,28,24,16,64,43,22,29.70,29.55,29.44,10,10,10,20,11,25,0.00,7,,320
2013-9-26,45,40,35,34,28,23,92,69,45,29.91,29.78,29.67,10,9,2,20,7,25,0.01,8,Rain-Snow,329
2013-9-27,54,40,26,34,27,19,92,59,26,30.21,30.05,29.92,10,10,10,16,8,23,0.01,4,Rain,306
2013-9-28,66,45,23,23,20,17,81,49,16,30.24,30.14,30.04,10,10,10,16,9,21,0.00,0,,188
2013-9-29,69,53,37,21,18,17,48,31,14,30.07,29.96,29.88,10,10,10,24,12,35,0.00,2,,195
2013-9-30,75,56,36,27,23,17,53,34,14,30.08,29.91,29.81,10,8,1,20,7,30,0.00,0,,205